createdAt,value
2023-02-19T00:01:01.569Z,1.97
2023-02-19T00:04:11.671Z,1.83
2023-02-19T00:07:13.981Z,1.65
2023-02-19T00:10:16.349Z,5.28
2023-02-19T00:13:19.336Z,2.07
2023-02-19T00:16:24.321Z,1.30
2023-02-19T00:19:26.646Z,2.67
2023-02-19T00:22:29.046Z,1.77
2023-02-19T00:25:31.279Z,2.95
2023-02-19T00:28:34.747Z,1.40
2023-02-19T00:31:37.158Z,0.70
2023-02-19T00:34:39.558Z,0.75
2023-02-19T00:37:42.350Z,0.73
2023-02-19T00:40:45.123Z,1.02
2023-02-19T00:43:47.687Z,1.53
2023-02-19T00:46:49.984Z,1.13
2023-02-19T00:49:52.256Z,0.60
2023-02-19T00:52:54.522Z,1.15
2023-02-19T00:55:56.888Z,1.30
2023-02-19T00:58:59.309Z,1.13
2023-02-19T01:02:01.619Z,0.67
2023-02-19T01:05:05.677Z,1.55
2023-02-19T01:08:07.916Z,1.75
2023-02-19T01:11:11.426Z,0.35
2023-02-19T01:14:14.244Z,0.73
2023-02-19T01:17:16.551Z,0.50
2023-02-19T01:20:18.768Z,0.73
2023-02-19T01:23:21.133Z,1.00
2023-02-19T01:26:26.650Z,1.85
2023-02-19T01:29:29.043Z,0.40
2023-02-19T01:32:31.378Z,0.20
2023-02-19T01:35:34.208Z,2.15
2023-02-19T01:38:36.545Z,0.60
2023-02-19T01:41:40.691Z,2.47
2023-02-19T01:44:42.967Z,0.57
2023-02-19T01:47:46.909Z,4.27
2023-02-19T01:50:55.917Z,1.02
2023-02-19T01:54:00.675Z,0.68
2023-02-19T01:57:08.758Z,1.98
2023-02-19T02:00:13.419Z,1.67
2023-02-19T02:03:16.401Z,1.50
2023-02-19T02:06:28.704Z,2.20
2023-02-19T02:09:50.073Z,1.20
2023-02-19T02:12:56.766Z,0.68
2023-02-19T02:16:17.323Z,1.10
2023-02-19T02:19:38.440Z,0.90
2023-02-19T02:23:00.763Z,2.42
2023-02-19T02:26:09.585Z,0.70
2023-02-19T02:29:42.913Z,2.28
2023-02-19T02:33:14.868Z,2.23
2023-02-19T02:36:21.487Z,1.37
2023-02-19T02:39:26.342Z,2.10
2023-02-19T02:42:29.332Z,1.02
2023-02-19T02:45:40.102Z,0.98
2023-02-19T02:49:03.926Z,0.53
2023-02-19T02:52:29.284Z,0.50
2023-02-19T02:55:36.175Z,0.63
2023-02-19T02:58:38.770Z,5.47
2023-02-19T03:02:09.031Z,0.52
2023-02-19T03:05:39.636Z,0.30
2023-02-19T03:08:44.922Z,0.43
2023-02-19T03:12:08.458Z,0.77
2023-02-19T03:15:31.609Z,0.75
2023-02-19T03:18:54.569Z,0.50
2023-02-19T03:22:27.960Z,0.60
2023-02-19T03:25:50.899Z,0.60
2023-02-19T03:29:19.871Z,0.30
2023-02-19T03:32:36.856Z,2.10
2023-02-19T03:35:49.573Z,1.02
2023-02-19T03:39:00.003Z,0.73
2023-02-19T03:42:08.973Z,0.30
2023-02-19T03:45:44.668Z,0.70
2023-02-19T03:49:02.013Z,0.55
2023-02-19T03:52:16.598Z,3.22
2023-02-19T03:55:34.854Z,0.83
2023-02-19T03:59:10.550Z,0.50
2023-02-19T04:02:34.140Z,0.70
2023-02-19T04:05:44.685Z,0.25
2023-02-19T04:08:50.338Z,0.60
2023-02-19T04:11:54.434Z,1.53
2023-02-19T04:15:04.991Z,1.30
2023-02-19T04:18:09.891Z,0.25
2023-02-19T04:21:12.864Z,0.30
2023-02-19T04:24:55.509Z,3.90
2023-02-19T04:27:58.869Z,0.20
2023-02-19T04:31:01.755Z,1.70
2023-02-19T04:34:04.998Z,1.05
2023-02-19T04:37:07.740Z,0.43
2023-02-19T04:40:10.599Z,0.47
2023-02-19T04:43:12.907Z,0.43
2023-02-19T04:46:15.250Z,0.77
2023-02-19T04:49:17.526Z,0.40
2023-02-19T04:52:19.814Z,0.38
2023-02-19T04:55:22.177Z,0.73
2023-02-19T04:58:24.455Z,1.33
2023-02-19T05:01:26.849Z,0.87
2023-02-19T05:04:29.221Z,0.30
2023-02-19T05:07:32.586Z,0.40
2023-02-19T05:10:35.009Z,0.98
2023-02-19T05:13:37.859Z,1.80
2023-02-19T05:16:40.164Z,0.27
2023-02-19T05:19:42.479Z,0.40
2023-02-19T05:22:44.783Z,0.40
2023-02-19T05:25:47.511Z,0.50
2023-02-19T05:28:53.567Z,1.47
2023-02-19T05:31:56.043Z,1.20
2023-02-19T05:34:58.346Z,0.85
2023-02-19T05:38:00.656Z,1.48
2023-02-19T05:41:19.235Z,1.42
2023-02-19T05:44:21.645Z,2.60
2023-02-19T05:47:23.881Z,2.50
2023-02-19T05:50:26.627Z,2.28
2023-02-19T05:53:29.072Z,1.60
2023-02-19T05:56:36.890Z,2.00
2023-02-19T05:59:39.248Z,1.97
2023-02-19T06:02:41.679Z,1.90
2023-02-19T06:05:44.010Z,2.50
2023-02-19T06:08:48.428Z,2.67
2023-02-19T06:11:50.714Z,3.22
2023-02-19T06:14:53.020Z,2.07
2023-02-19T06:17:55.280Z,2.07
2023-02-19T06:21:05.027Z,1.33
2023-02-19T06:24:08.631Z,2.35
2023-02-19T06:27:11.542Z,2.65
2023-02-19T06:30:13.941Z,3.13
2023-02-19T06:33:16.251Z,3.57
2023-02-19T06:36:20.837Z,3.95
2023-02-19T06:39:23.119Z,4.65
2023-02-19T06:42:25.406Z,5.88
2023-02-19T06:45:27.698Z,6.13
2023-02-19T06:48:31.004Z,5.27
2023-02-19T06:51:33.544Z,6.82
2023-02-19T06:54:35.910Z,7.90
2023-02-19T06:57:38.225Z,10.90
2023-02-19T07:00:40.530Z,12.93
2023-02-19T07:03:42.876Z,16.03
2023-02-19T07:06:45.193Z,19.80
2023-02-19T07:09:47.538Z,18.67
2023-02-19T07:12:49.828Z,17.25
2023-02-19T07:15:52.509Z,16.70
2023-02-19T07:18:59.386Z,21.10
2023-02-19T07:22:01.695Z,20.15
2023-02-19T07:25:04.102Z,20.45
2023-02-19T07:28:06.859Z,22.38
2023-02-19T07:31:09.734Z,20.93
2023-02-19T07:34:12.215Z,19.77
2023-02-19T07:37:14.428Z,24.85
2023-02-19T07:40:16.846Z,22.65
2023-02-19T07:43:19.484Z,27.10
2023-02-19T07:46:22.784Z,22.27
2023-02-19T07:49:25.155Z,32.27
2023-02-19T07:52:28.360Z,24.42
2023-02-19T07:55:32.476Z,24.08
2023-02-19T07:58:35.525Z,23.48
2023-02-19T08:01:56.613Z,21.60
2023-02-19T08:04:58.971Z,19.60
2023-02-19T08:08:01.354Z,21.33
2023-02-19T08:11:23.894Z,17.48
2023-02-19T08:14:27.267Z,22.48
2023-02-19T08:17:31.210Z,20.27
2023-02-19T08:20:33.590Z,22.87
2023-02-19T08:23:36.459Z,20.35
2023-02-19T08:26:38.765Z,20.27
2023-02-19T08:29:41.169Z,20.38
2023-02-19T08:32:43.509Z,20.40
2023-02-19T08:35:46.613Z,18.53
2023-02-19T08:38:49.006Z,25.13
2023-02-19T08:41:51.399Z,19.75
2023-02-19T08:44:53.714Z,15.30
2023-02-19T08:47:56.038Z,14.83
2023-02-19T08:51:00.811Z,13.03
2023-02-19T08:54:04.634Z,13.82
2023-02-19T08:57:06.978Z,12.13
2023-02-19T09:00:10.092Z,11.38
2023-02-19T09:03:12.472Z,13.43
2023-02-19T09:06:19.735Z,18.90
2023-02-19T09:09:22.117Z,16.80
2023-02-19T09:12:25.371Z,17.13
2023-02-19T09:15:29.755Z,18.17
2023-02-19T09:18:32.317Z,20.53
2023-02-19T09:21:34.967Z,20.77
2023-02-19T09:24:37.374Z,16.50
2023-02-19T09:27:39.684Z,19.42
2023-02-19T09:30:42.113Z,18.15
2023-02-19T09:33:46.203Z,19.40
2023-02-19T09:36:51.758Z,22.07
2023-02-19T09:39:54.924Z,23.67
2023-02-19T09:42:57.396Z,20.83
2023-02-19T09:46:07.164Z,24.63
2023-02-19T09:49:19.951Z,23.30
2023-02-19T09:52:31.373Z,21.10
2023-02-19T09:55:39.732Z,23.08
2023-02-19T09:58:48.313Z,25.17
2023-02-19T10:01:56.474Z,23.67
2023-02-19T10:04:59.238Z,24.10
2023-02-19T10:08:05.376Z,24.63
2023-02-19T10:11:12.024Z,24.77
2023-02-19T10:14:19.151Z,20.92
2023-02-19T10:17:31.502Z,20.73
2023-02-19T10:20:34.221Z,20.77
2023-02-19T10:23:36.561Z,17.53
2023-02-19T10:26:39.687Z,17.25
2023-02-19T10:29:47.170Z,20.85
2023-02-19T10:33:14.454Z,14.77
2023-02-19T10:36:34.207Z,14.57
2023-02-19T10:39:47.545Z,13.47
2023-02-19T10:42:52.748Z,11.15
2023-02-19T10:45:55.182Z,9.75
2023-02-19T10:48:59.951Z,11.30
2023-02-19T10:52:18.516Z,11.57
2023-02-19T10:55:31.475Z,13.87
2023-02-19T10:58:38.001Z,18.02
2023-02-19T11:02:02.955Z,15.63
2023-02-19T11:05:16.501Z,13.77
2023-02-19T11:08:23.899Z,14.60
2023-02-19T11:11:30.452Z,12.80
2023-02-19T11:14:33.921Z,11.52
2023-02-19T11:17:36.633Z,10.13
2023-02-19T11:20:50.062Z,5.00
2023-02-19T11:23:52.550Z,1.73
2023-02-19T11:26:57.660Z,4.53
2023-02-19T11:30:28.186Z,1.55
2023-02-19T11:33:31.115Z,1.73
2023-02-19T11:36:36.940Z,2.83
2023-02-19T11:39:44.773Z,2.80
2023-02-19T11:43:01.536Z,1.53
2023-02-19T11:46:27.760Z,1.80
2023-02-19T11:49:52.974Z,4.20
2023-02-19T11:52:58.276Z,2.90
2023-02-19T11:56:21.963Z,2.73
2023-02-19T11:59:37.779Z,3.17
2023-02-19T12:03:05.749Z,1.90
2023-02-19T12:06:27.144Z,2.60
2023-02-19T12:09:35.228Z,2.63
2023-02-19T12:12:59.434Z,2.17
2023-02-19T12:16:19.783Z,1.80
2023-02-19T12:19:43.189Z,2.78
2023-02-19T12:22:54.415Z,1.50
2023-02-19T12:26:05.666Z,2.25
2023-02-19T12:29:11.080Z,3.23
2023-02-19T12:32:31.928Z,4.13
2023-02-19T12:35:45.205Z,1.33
2023-02-19T12:39:11.818Z,3.80
2023-02-19T12:42:46.194Z,2.05
2023-02-19T12:46:02.045Z,1.77
2023-02-19T12:49:32.112Z,1.80
2023-02-19T12:52:40.350Z,1.13
2023-02-19T12:55:46.163Z,1.50
2023-02-19T12:59:14.109Z,1.42
2023-02-19T13:02:19.138Z,1.40
2023-02-19T13:05:49.822Z,2.20
2023-02-19T13:09:21.674Z,1.42
2023-02-19T13:12:29.637Z,1.15
2023-02-19T13:15:37.222Z,0.77
2023-02-19T13:18:45.565Z,0.90
2023-02-19T13:22:33.479Z,0.40
2023-02-19T13:26:09.930Z,0.52
2023-02-19T13:29:54.256Z,2.13
2023-02-19T13:33:22.906Z,2.83
2023-02-19T13:36:29.370Z,1.13
2023-02-19T13:39:31.894Z,1.00
2023-02-19T13:42:35.721Z,0.40
2023-02-19T13:45:43.561Z,1.42
2023-02-19T13:48:45.898Z,1.30
2023-02-19T13:51:51.169Z,9.93
2023-02-19T13:55:31.749Z,5.30
2023-02-19T13:58:34.043Z,1.27
2023-02-19T14:01:52.039Z,1.10
2023-02-19T14:05:03.641Z,0.15
2023-02-19T14:08:09.106Z,0.50
2023-02-19T14:11:14.430Z,2.60
2023-02-19T14:14:36.311Z,1.40
2023-02-19T14:17:40.812Z,1.40
2023-02-19T14:20:45.091Z,0.90
2023-02-19T14:23:53.950Z,1.30
2023-02-19T14:26:57.270Z,2.57
2023-02-19T14:29:59.961Z,0.65
2023-02-19T14:33:10.508Z,0.88
2023-02-19T14:36:26.917Z,0.60
2023-02-19T14:39:31.304Z,1.00
2023-02-19T14:42:34.539Z,0.73
2023-02-19T14:45:42.549Z,1.55
2023-02-19T14:48:47.783Z,0.73
2023-02-19T14:51:53.078Z,0.15
2023-02-19T14:55:08.984Z,1.23
2023-02-19T14:58:14.625Z,0.30
2023-02-19T15:01:27.545Z,0.32
2023-02-19T15:04:35.570Z,0.30
2023-02-19T15:07:38.052Z,0.30
2023-02-19T15:10:42.422Z,0.20
2023-02-19T15:13:51.512Z,0.20
2023-02-19T15:16:58.111Z,0.40
2023-02-19T15:20:09.712Z,0.40
2023-02-19T15:23:17.457Z,1.60
2023-02-19T15:26:22.947Z,0.43
2023-02-19T15:29:27.041Z,1.27
2023-02-19T15:32:29.388Z,0.50
2023-02-19T15:35:33.475Z,0.40
2023-02-19T15:38:35.809Z,0.20
2023-02-19T15:41:38.406Z,0.20
2023-02-19T15:44:43.650Z,0.53
2023-02-19T15:47:50.260Z,0.73
2023-02-19T15:50:57.735Z,0.28
2023-02-19T15:54:08.654Z,0.47
2023-02-19T15:57:15.096Z,0.20
2023-02-19T16:00:21.578Z,0.40
2023-02-19T16:03:25.774Z,0.32
2023-02-19T16:06:28.627Z,0.20
2023-02-19T16:09:37.639Z,0.10
2023-02-19T16:12:41.073Z,0.93
2023-02-19T16:15:58.775Z,0.17
2023-02-19T16:19:01.174Z,0.40
2023-02-19T16:22:13.410Z,0.68
2023-02-19T16:25:31.174Z,0.10
2023-02-19T16:28:38.008Z,0.67
2023-02-19T16:31:51.635Z,0.90
2023-02-19T16:34:54.023Z,0.57
2023-02-19T16:37:58.999Z,0.55
2023-02-19T16:41:07.482Z,0.13
2023-02-19T16:44:25.025Z,1.00
2023-02-19T16:47:37.817Z,0.83
2023-02-19T16:50:41.603Z,0.43
2023-02-19T16:53:43.977Z,0.40
2023-02-19T16:56:46.396Z,0.30
2023-02-19T16:59:48.779Z,0.23
2023-02-19T17:02:52.992Z,0.30
2023-02-19T17:05:56.533Z,0.35
2023-02-19T17:08:59.201Z,0.43
2023-02-19T17:12:02.415Z,0.20
2023-02-19T17:15:04.917Z,1.13
2023-02-19T17:18:09.513Z,0.30
2023-02-19T17:21:20.609Z,0.25
2023-02-19T17:24:24.586Z,0.17
2023-02-19T17:27:26.913Z,0.10
2023-02-19T17:30:31.728Z,2.10
2023-02-19T17:33:34.167Z,0.73
2023-02-19T17:36:38.078Z,0.63
2023-02-19T17:39:40.427Z,0.32
2023-02-19T17:42:42.802Z,0.25
2023-02-19T17:45:45.212Z,0.20
2023-02-19T17:48:47.818Z,0.50
2023-02-19T17:51:50.108Z,0.50
2023-02-19T17:54:52.499Z,0.73
2023-02-19T17:57:54.878Z,1.10
2023-02-19T18:00:57.848Z,0.10
2023-02-19T18:04:01.473Z,0.20
2023-02-19T18:07:03.956Z,0.30
2023-02-19T18:10:07.239Z,0.10
2023-02-19T18:13:10.587Z,1.35
2023-02-19T18:16:15.605Z,0.43
2023-02-19T18:19:19.619Z,0.57
2023-02-19T18:22:23.186Z,0.75
2023-02-19T18:25:25.635Z,0.77
2023-02-19T18:28:27.932Z,1.42
2023-02-19T18:31:37.313Z,0.67
2023-02-19T18:34:39.924Z,0.30
2023-02-19T18:37:42.956Z,0.50
2023-02-19T18:40:45.342Z,0.20
2023-02-19T18:43:48.260Z,0.40
2023-02-19T18:46:50.732Z,0.23
2023-02-19T18:49:55.856Z,0.70
2023-02-19T18:52:58.282Z,0.73
2023-02-19T18:56:02.107Z,0.20
2023-02-19T18:59:04.378Z,0.30
2023-02-19T19:02:10.298Z,0.60
2023-02-19T19:05:13.773Z,0.40
2023-02-19T19:08:16.311Z,1.27
2023-02-19T19:11:18.674Z,0.65
2023-02-19T19:14:21.321Z,1.50
2023-02-19T19:17:23.650Z,0.37
2023-02-19T19:20:25.946Z,0.90
2023-02-19T19:23:28.207Z,0.50
2023-02-19T19:26:30.541Z,0.38
2023-02-19T19:29:32.851Z,0.80
2023-02-19T19:32:35.143Z,0.40
2023-02-19T19:35:37.423Z,0.30
2023-02-19T19:38:41.323Z,0.80
2023-02-19T19:41:43.672Z,0.90
2023-02-19T19:44:46.013Z,0.90
2023-02-19T19:47:48.974Z,0.90
2023-02-19T19:50:51.193Z,0.87
2023-02-19T19:53:53.915Z,0.50
2023-02-19T19:56:56.256Z,0.90
2023-02-19T19:59:58.553Z,2.55
2023-02-19T20:03:00.981Z,1.00
2023-02-19T20:06:03.399Z,0.97
2023-02-19T20:09:05.730Z,2.35
2023-02-19T20:12:08.720Z,1.88
2023-02-19T20:15:11.071Z,1.10
2023-02-19T20:18:13.304Z,3.80
2023-02-19T20:21:15.612Z,1.33
2023-02-19T20:24:20.900Z,0.88
2023-02-19T20:27:23.640Z,1.02
2023-02-19T20:30:26.153Z,0.88
2023-02-19T20:33:28.480Z,2.07
2023-02-19T20:36:32.176Z,0.80
2023-02-19T20:39:35.439Z,0.90
2023-02-19T20:42:37.973Z,1.40
2023-02-19T20:45:41.121Z,0.68
2023-02-19T20:48:43.395Z,0.70
2023-02-19T20:51:55.739Z,0.67
2023-02-19T20:54:58.066Z,0.80
2023-02-19T20:58:00.389Z,0.77
2023-02-19T21:01:02.730Z,0.63
2023-02-19T21:04:05.124Z,0.90
2023-02-19T21:07:07.470Z,0.70
2023-02-19T21:10:10.304Z,2.13
2023-02-19T21:13:12.986Z,0.68
2023-02-19T21:16:15.546Z,0.80
2023-02-19T21:19:17.950Z,0.80
2023-02-19T21:22:20.387Z,0.70
2023-02-19T21:25:22.775Z,0.98
2023-02-19T21:28:25.046Z,2.33
2023-02-19T21:31:36.670Z,0.80
2023-02-19T21:34:39.031Z,1.60
2023-02-19T21:37:43.176Z,2.27
2023-02-19T21:40:45.453Z,1.25
2023-02-19T21:43:47.705Z,1.10
2023-02-19T21:46:50.071Z,0.70
2023-02-19T21:49:52.389Z,0.80
2023-02-19T21:52:55.240Z,1.63
2023-02-19T21:55:59.153Z,2.10
2023-02-19T21:59:01.938Z,1.55
2023-02-19T22:02:04.206Z,2.88
2023-02-19T22:05:06.970Z,0.70
2023-02-19T22:08:09.290Z,1.83
2023-02-19T22:11:11.813Z,1.55
2023-02-19T22:14:14.174Z,1.48
2023-02-19T22:17:16.501Z,1.23
2023-02-19T22:20:19.661Z,1.47
2023-02-19T22:23:21.977Z,3.10
2023-02-19T22:26:32.566Z,1.35
2023-02-19T22:29:34.989Z,1.27
2023-02-19T22:32:37.427Z,3.22
2023-02-19T22:35:39.734Z,2.77
2023-02-19T22:38:42.141Z,1.93
2023-02-19T22:41:44.709Z,2.05
2023-02-19T22:44:47.067Z,3.08
2023-02-19T22:47:49.340Z,0.80
2023-02-19T22:50:52.671Z,0.83
2023-02-19T22:53:56.393Z,1.83
2023-02-19T22:56:58.671Z,1.67
2023-02-19T23:00:00.962Z,1.88
2023-02-19T23:03:03.338Z,2.00
2023-02-19T23:06:05.673Z,2.10
2023-02-19T23:09:11.117Z,3.50
2023-02-19T23:12:13.494Z,1.35
2023-02-19T23:15:15.909Z,1.20
2023-02-19T23:18:18.206Z,2.10
2023-02-19T23:21:21.902Z,3.13
2023-02-19T23:24:24.595Z,1.37
2023-02-19T23:27:28.553Z,1.15
2023-02-19T23:30:30.996Z,2.60
2023-02-19T23:33:34.068Z,2.25
2023-02-19T23:36:47.512Z,1.07
2023-02-19T23:39:49.771Z,1.93
2023-02-19T23:42:52.078Z,1.13
2023-02-19T23:45:54.525Z,1.23
2023-02-19T23:48:56.770Z,2.15
2023-02-19T23:51:59.115Z,1.00
2023-02-19T23:55:01.466Z,1.97
2023-02-19T23:58:03.739Z,0.73
